createdAt,value
2019-05-22T00:01:45.632Z,5.20
2019-05-22T00:04:17.181Z,4.60
2019-05-22T00:06:47.947Z,4.60
2019-05-22T00:09:26.023Z,3.93
2019-05-22T00:11:55.821Z,4.80
2019-05-22T00:14:26.511Z,4.40
2019-05-22T00:16:56.467Z,4.40
2019-05-22T00:19:26.398Z,4.63
2019-05-22T00:22:00.786Z,3.97
2019-05-22T00:24:30.174Z,3.80
2019-05-22T00:27:01.003Z,3.90
2019-05-22T00:29:32.903Z,4.17
2019-05-22T00:32:03.657Z,3.67
2019-05-22T00:34:33.625Z,4.50
2019-05-22T00:37:02.638Z,4.43
2019-05-22T00:39:32.236Z,3.67
2019-05-22T00:42:01.406Z,4.77
2019-05-22T00:44:30.620Z,3.93
2019-05-22T00:47:01.341Z,3.60
2019-05-22T00:49:30.775Z,3.70
2019-05-22T00:52:07.009Z,3.87
2019-05-22T00:54:58.542Z,3.87
2019-05-22T00:57:42.546Z,3.70
2019-05-22T01:00:24.246Z,3.83
2019-05-22T01:02:56.208Z,3.87
2019-05-22T01:05:26.461Z,3.80
2019-05-22T01:07:57.359Z,3.77
2019-05-22T01:10:29.185Z,3.50
2019-05-22T01:13:03.447Z,4.00
2019-05-22T01:15:35.016Z,4.10
2019-05-22T01:18:09.105Z,3.90
2019-05-22T01:20:40.599Z,3.53
2019-05-22T01:23:15.698Z,3.47
2019-05-22T01:25:45.875Z,3.60
2019-05-22T01:28:16.183Z,2.93
2019-05-22T01:30:57.509Z,3.33
2019-05-22T01:33:44.696Z,3.27
2019-05-22T01:36:35.483Z,3.50
2019-05-22T01:39:24.090Z,3.37
2019-05-22T01:41:54.843Z,3.47
2019-05-22T01:44:24.778Z,3.83
2019-05-22T01:46:55.501Z,3.37
2019-05-22T01:49:26.827Z,3.80
2019-05-22T01:51:56.415Z,2.77
2019-05-22T01:54:27.782Z,3.50
2019-05-22T01:57:04.143Z,3.90
2019-05-22T01:59:36.714Z,3.50
2019-05-22T02:02:07.622Z,3.30
2019-05-22T02:04:36.707Z,3.90
2019-05-22T02:07:07.817Z,3.60
2019-05-22T02:09:38.179Z,2.97
2019-05-22T02:12:15.868Z,3.00
2019-05-22T02:14:46.274Z,3.17
2019-05-22T02:17:16.235Z,2.87
2019-05-22T02:19:46.094Z,2.67
2019-05-22T02:22:15.259Z,3.30
2019-05-22T02:24:45.088Z,3.27
2019-05-22T02:27:14.249Z,2.73
2019-05-22T02:29:44.564Z,3.30
2019-05-22T02:32:14.571Z,3.37
2019-05-22T02:34:44.002Z,3.40
2019-05-22T02:37:13.087Z,3.30
2019-05-22T02:39:42.898Z,3.33
2019-05-22T02:42:15.301Z,3.00
2019-05-22T02:44:45.197Z,3.03
2019-05-22T02:47:20.453Z,2.70
2019-05-22T02:49:48.979Z,3.13
2019-05-22T02:52:18.062Z,3.10
2019-05-22T02:54:47.209Z,3.07
2019-05-22T02:57:17.681Z,2.93
2019-05-22T02:59:46.952Z,2.70
2019-05-22T03:02:23.505Z,2.90
2019-05-22T03:05:03.652Z,2.93
2019-05-22T03:07:33.769Z,2.87
2019-05-22T03:10:03.460Z,2.93
2019-05-22T03:12:33.130Z,3.30
2019-05-22T03:15:04.118Z,3.30
2019-05-22T03:17:34.703Z,2.83
2019-05-22T03:20:08.737Z,3.03
2019-05-22T03:22:44.385Z,2.97
2019-05-22T03:25:15.832Z,2.70
2019-05-22T03:27:47.859Z,3.00
2019-05-22T03:30:21.480Z,2.60
2019-05-22T03:32:52.153Z,2.90
2019-05-22T03:35:21.782Z,2.63
2019-05-22T03:37:53.249Z,3.00
2019-05-22T03:40:22.605Z,3.33
2019-05-22T03:42:51.650Z,2.77
2019-05-22T03:45:22.359Z,3.00
2019-05-22T03:47:53.013Z,2.50
2019-05-22T03:50:22.823Z,2.77
2019-05-22T03:52:51.886Z,2.57
2019-05-22T03:55:20.935Z,3.03
2019-05-22T03:57:49.990Z,2.63
2019-05-22T04:00:19.687Z,2.80
2019-05-22T04:02:53.388Z,3.20
2019-05-22T04:05:23.135Z,2.93
2019-05-22T04:07:54.215Z,2.40
2019-05-22T04:10:25.943Z,2.70
2019-05-22T04:12:55.399Z,2.93
2019-05-22T04:15:25.264Z,2.87
2019-05-22T04:17:54.748Z,3.30
2019-05-22T04:20:23.907Z,2.80
2019-05-22T04:22:57.757Z,2.57
2019-05-22T04:25:29.739Z,2.40
2019-05-22T04:27:58.807Z,3.93
2019-05-22T04:30:31.855Z,2.70
2019-05-22T04:33:01.607Z,2.73
2019-05-22T04:35:31.744Z,2.60
2019-05-22T04:38:18.582Z,2.70
2019-05-22T04:40:49.054Z,3.00
2019-05-22T04:43:23.845Z,2.73
2019-05-22T04:45:53.816Z,2.70
2019-05-22T04:48:23.648Z,3.00
2019-05-22T04:50:53.274Z,2.53
2019-05-22T04:53:22.436Z,2.67
2019-05-22T04:55:52.622Z,2.60
2019-05-22T04:58:30.604Z,2.77
2019-05-22T05:00:59.707Z,2.80
2019-05-22T05:03:29.362Z,2.80
2019-05-22T05:05:58.835Z,2.83
2019-05-22T05:08:30.020Z,2.60
2019-05-22T05:11:18.964Z,2.80
2019-05-22T05:13:48.802Z,2.80
2019-05-22T05:16:22.159Z,2.90
2019-05-22T05:18:51.939Z,2.47
2019-05-22T05:21:21.522Z,3.07
2019-05-22T05:23:50.973Z,2.80
2019-05-22T05:26:20.810Z,2.87
2019-05-22T05:28:50.651Z,2.57
2019-05-22T05:31:20.870Z,2.60
2019-05-22T05:34:28.543Z,2.70
2019-05-22T05:37:00.680Z,2.60
2019-05-22T05:40:27.050Z,2.73
2019-05-22T05:42:58.318Z,2.50
2019-05-22T05:45:47.667Z,2.40
2019-05-22T05:48:19.898Z,2.30
2019-05-22T05:51:25.556Z,3.17
2019-05-22T05:53:59.697Z,2.43
2019-05-22T05:56:30.150Z,2.80
2019-05-22T05:59:00.420Z,2.73
2019-05-22T06:01:34.677Z,2.43
2019-05-22T06:04:05.139Z,2.67
2019-05-22T06:07:13.466Z,2.40
2019-05-22T06:09:42.711Z,2.97
2019-05-22T06:12:13.045Z,2.67
2019-05-22T06:14:42.059Z,2.73
2019-05-22T06:17:52.567Z,2.90
2019-05-22T06:20:23.911Z,2.73
2019-05-22T06:23:48.292Z,2.60
2019-05-22T06:26:55.605Z,2.60
2019-05-22T06:29:28.034Z,3.27
2019-05-22T06:32:43.043Z,3.13
2019-05-22T06:35:12.710Z,3.07
2019-05-22T06:37:53.401Z,3.10
2019-05-22T06:40:22.710Z,3.00
2019-05-22T06:43:30.309Z,2.70
2019-05-22T06:45:59.321Z,2.83
2019-05-22T06:48:28.356Z,4.37
2019-05-22T06:50:57.488Z,2.90
2019-05-22T06:53:26.632Z,3.37
2019-05-22T06:55:55.773Z,3.30
2019-05-22T06:58:25.114Z,3.07
2019-05-22T07:00:54.128Z,2.87
2019-05-22T07:03:24.160Z,2.73
2019-05-22T07:06:05.092Z,2.63
2019-05-22T07:08:34.200Z,2.53
2019-05-22T07:11:03.216Z,3.10
2019-05-22T07:13:32.983Z,2.60
2019-05-22T07:16:03.614Z,2.73
2019-05-22T07:18:32.747Z,2.80
2019-05-22T07:21:01.797Z,2.40
2019-05-22T07:23:33.064Z,2.30
2019-05-22T07:26:04.162Z,2.53
2019-05-22T07:28:33.493Z,2.80
2019-05-22T07:31:02.830Z,2.80
2019-05-22T07:33:32.022Z,2.70
2019-05-22T07:36:11.151Z,2.50
2019-05-22T07:38:32.465Z,3.07
2019-05-22T07:41:01.574Z,2.40
2019-05-22T07:43:31.100Z,2.50
2019-05-22T07:46:00.649Z,2.60
2019-05-22T07:48:30.206Z,2.03
2019-05-22T07:50:59.331Z,2.60
2019-05-22T07:53:28.347Z,2.70
2019-05-22T07:55:58.384Z,2.20
2019-05-22T07:58:28.708Z,2.40
2019-05-22T08:01:03.106Z,2.60
2019-05-22T08:03:32.525Z,2.23
2019-05-22T08:06:01.662Z,2.20
2019-05-22T08:08:33.070Z,2.60
2019-05-22T08:11:02.261Z,2.13
2019-05-22T08:13:32.163Z,2.30
2019-05-22T08:16:01.570Z,2.30
2019-05-22T08:18:36.406Z,2.10
2019-05-22T08:21:05.712Z,1.90
2019-05-22T08:23:35.263Z,1.63
2019-05-22T08:26:07.444Z,1.70
2019-05-22T08:28:36.888Z,2.00
2019-05-22T08:31:07.411Z,1.73
2019-05-22T08:33:36.596Z,2.17
2019-05-22T08:36:06.036Z,1.80
2019-05-22T08:38:35.803Z,2.17
2019-05-22T08:41:07.030Z,2.00
2019-05-22T08:43:55.829Z,1.87
2019-05-22T08:46:06.981Z,2.40
2019-05-22T08:48:36.303Z,1.70
2019-05-22T08:51:06.552Z,2.00
2019-05-22T08:53:46.886Z,1.60
2019-05-22T08:56:07.086Z,2.20
2019-05-22T08:58:39.726Z,1.77
2019-05-22T09:01:11.823Z,2.23
2019-05-22T09:03:41.095Z,2.10
2019-05-22T09:06:10.317Z,2.10
2019-05-22T09:08:39.429Z,2.10
2019-05-22T09:11:08.822Z,2.37
2019-05-22T09:13:38.235Z,2.13
2019-05-22T09:16:08.143Z,2.37
2019-05-22T09:18:37.160Z,2.27
2019-05-22T09:21:06.458Z,2.20
2019-05-22T09:23:36.792Z,2.57
2019-05-22T09:26:06.455Z,2.00
2019-05-22T09:28:35.594Z,2.23
2019-05-22T09:31:05.601Z,2.83
2019-05-22T09:33:35.739Z,2.13
2019-05-22T09:36:04.912Z,2.30
2019-05-22T09:38:34.150Z,2.60
2019-05-22T09:41:03.771Z,2.43
2019-05-22T09:43:33.632Z,2.40
2019-05-22T09:46:03.586Z,2.10
2019-05-22T09:48:34.298Z,2.17
2019-05-22T09:51:05.376Z,2.60
2019-05-22T09:53:34.815Z,2.10
2019-05-22T09:56:04.681Z,2.80
2019-05-22T09:58:33.729Z,2.63
2019-05-22T10:01:03.389Z,2.80
2019-05-22T10:03:32.602Z,2.67
2019-05-22T10:06:02.003Z,3.40
2019-05-22T10:08:31.399Z,2.73
2019-05-22T10:11:00.766Z,2.63
2019-05-22T10:13:30.164Z,3.20
2019-05-22T10:15:59.537Z,2.70
2019-05-22T10:18:28.698Z,2.80
2019-05-22T10:20:58.370Z,3.60
2019-05-22T10:23:30.536Z,2.40
2019-05-22T10:25:59.548Z,3.17
2019-05-22T10:28:28.972Z,2.83
2019-05-22T10:30:59.150Z,2.83
2019-05-22T10:33:28.831Z,2.70
2019-05-22T10:35:57.885Z,2.07
2019-05-22T10:38:27.179Z,2.90
2019-05-22T10:40:59.179Z,2.87
2019-05-22T10:43:27.427Z,2.70
2019-05-22T10:45:56.451Z,3.47
2019-05-22T10:48:25.539Z,3.83
2019-05-22T10:50:54.591Z,3.90
2019-05-22T10:53:33.107Z,3.20
2019-05-22T10:55:54.778Z,3.50
2019-05-22T10:58:23.836Z,2.90
2019-05-22T11:00:53.349Z,4.13
2019-05-22T11:03:23.003Z,3.07
2019-05-22T11:06:06.586Z,3.60
2019-05-22T11:08:23.193Z,4.10
2019-05-22T11:10:52.444Z,4.90
2019-05-22T11:13:21.561Z,4.93
2019-05-22T11:15:51.616Z,5.60
2019-05-22T11:18:20.736Z,5.77
2019-05-22T11:20:49.756Z,4.60
2019-05-22T11:23:18.804Z,4.90
2019-05-22T11:25:47.840Z,5.77
2019-05-22T11:28:16.874Z,4.97
2019-05-22T11:30:46.279Z,4.47
2019-05-22T11:33:15.531Z,5.40
2019-05-22T11:35:45.102Z,6.20
2019-05-22T11:38:14.115Z,5.53
2019-05-22T11:40:43.098Z,5.90
2019-05-22T11:43:16.471Z,5.00
2019-05-22T11:46:02.540Z,5.13
2019-05-22T11:48:31.556Z,4.83
2019-05-22T11:51:01.869Z,5.20
2019-05-22T11:53:31.041Z,5.83
2019-05-22T11:56:00.354Z,7.17
2019-05-22T11:58:29.467Z,6.10
2019-05-22T12:00:59.897Z,6.93
2019-05-22T12:03:29.568Z,7.83
2019-05-22T12:05:59.419Z,7.07
2019-05-22T12:08:29.086Z,6.40
2019-05-22T12:10:58.369Z,6.80
2019-05-22T12:13:27.812Z,6.93
2019-05-22T12:15:58.076Z,6.53
2019-05-22T12:18:31.658Z,8.47
2019-05-22T12:21:00.748Z,9.33
2019-05-22T12:23:30.215Z,8.97
2019-05-22T12:25:59.251Z,9.63
2019-05-22T12:28:28.244Z,10.00
2019-05-22T12:30:57.934Z,10.30
2019-05-22T12:33:27.321Z,10.47
2019-05-22T12:35:56.863Z,9.53
2019-05-22T12:38:28.811Z,8.13
2019-05-22T12:40:58.074Z,10.43
2019-05-22T12:43:28.031Z,10.37
2019-05-22T12:45:57.383Z,10.03
2019-05-22T12:48:26.944Z,10.03
2019-05-22T12:50:56.463Z,9.90
2019-05-22T12:53:25.531Z,10.00
2019-05-22T12:55:54.540Z,10.60
2019-05-22T12:58:23.665Z,10.00
2019-05-22T13:00:52.731Z,9.70
2019-05-22T13:03:22.409Z,8.57
2019-05-22T13:05:51.799Z,10.17
2019-05-22T13:08:20.920Z,9.13
2019-05-22T13:10:50.017Z,8.80
2019-05-22T13:13:19.465Z,9.30
2019-05-22T13:15:48.709Z,8.90
2019-05-22T13:18:18.704Z,9.77
2019-05-22T13:20:47.955Z,8.83
2019-05-22T13:23:17.412Z,9.20
2019-05-22T13:25:46.833Z,9.17
2019-05-22T13:28:16.819Z,10.23
2019-05-22T13:30:49.677Z,9.00
2019-05-22T13:33:21.997Z,8.87
2019-05-22T13:35:51.273Z,8.40
2019-05-22T13:38:20.356Z,8.43
2019-05-22T13:40:50.791Z,11.10
2019-05-22T13:43:19.887Z,9.20
2019-05-22T13:45:49.035Z,11.33
2019-05-22T13:48:18.111Z,10.77
2019-05-22T13:50:47.271Z,10.03
2019-05-22T13:53:16.444Z,10.53
2019-05-22T13:55:46.101Z,10.53
2019-05-22T13:58:15.886Z,9.07
2019-05-22T14:00:45.012Z,8.23
2019-05-22T14:03:14.739Z,7.43
2019-05-22T14:05:44.721Z,8.13
2019-05-22T14:08:14.053Z,9.33
2019-05-22T14:10:43.823Z,9.23
2019-05-22T14:13:13.012Z,9.30
2019-05-22T14:15:50.534Z,8.87
2019-05-22T14:18:13.111Z,7.90
2019-05-22T14:20:42.330Z,8.10
2019-05-22T14:23:11.381Z,7.80
2019-05-22T14:25:40.730Z,7.57
2019-05-22T14:28:11.504Z,6.60
2019-05-22T14:30:40.592Z,6.77
2019-05-22T14:33:09.838Z,5.60
2019-05-22T14:35:48.159Z,6.00
2019-05-22T14:38:11.339Z,4.70
2019-05-22T14:40:40.429Z,4.40
2019-05-22T14:43:09.494Z,3.73
2019-05-22T14:45:38.870Z,3.43
2019-05-22T14:48:09.258Z,2.47
2019-05-22T14:50:39.525Z,3.00
2019-05-22T14:53:10.842Z,2.70
2019-05-22T14:55:41.498Z,3.57
2019-05-22T14:58:10.532Z,2.80
2019-05-22T15:00:39.818Z,2.43
2019-05-22T15:03:08.904Z,2.10
2019-05-22T15:05:38.122Z,2.30
2019-05-22T15:08:07.619Z,1.93
2019-05-22T15:10:37.345Z,1.40
2019-05-22T15:13:06.495Z,1.57
2019-05-22T15:15:39.948Z,1.70
2019-05-22T15:18:06.425Z,1.90
2019-05-22T15:20:52.711Z,1.80
2019-05-22T15:23:21.811Z,1.70
2019-05-22T15:25:51.047Z,1.43
2019-05-22T15:28:20.124Z,1.80
2019-05-22T15:30:50.410Z,2.10
2019-05-22T15:33:19.463Z,2.20
2019-05-22T15:35:48.714Z,2.00
2019-05-22T15:38:18.047Z,1.97
2019-05-22T15:40:47.407Z,2.13
2019-05-22T15:43:17.205Z,2.37
2019-05-22T15:45:46.790Z,2.30
2019-05-22T15:48:19.642Z,2.13
2019-05-22T15:50:49.766Z,1.90
2019-05-22T15:53:19.479Z,2.27
2019-05-22T15:55:48.891Z,2.00
2019-05-22T15:58:18.074Z,1.70
2019-05-22T16:00:47.427Z,1.40
2019-05-22T16:03:20.734Z,1.80
2019-05-22T16:05:49.974Z,2.80
2019-05-22T16:08:19.547Z,2.97
2019-05-22T16:10:48.966Z,3.17
2019-05-22T16:13:20.105Z,2.30
2019-05-22T16:15:49.767Z,2.30
2019-05-22T16:18:20.354Z,2.03
2019-05-22T16:20:49.587Z,3.33
2019-05-22T16:23:21.719Z,3.60
2019-05-22T16:25:50.459Z,3.20
2019-05-22T16:28:21.427Z,2.70
2019-05-22T16:30:50.510Z,2.70
2019-05-22T16:33:20.309Z,2.60
2019-05-22T16:35:49.555Z,3.00
2019-05-22T16:38:19.258Z,3.70
2019-05-22T16:40:48.329Z,4.53
2019-05-22T16:43:17.448Z,4.97
2019-05-22T16:45:46.466Z,3.77
2019-05-22T16:48:28.387Z,4.03
2019-05-22T16:50:47.278Z,3.30
2019-05-22T16:53:16.527Z,3.87
2019-05-22T16:55:45.574Z,3.20
2019-05-22T16:58:14.917Z,2.30
2019-05-22T17:00:44.062Z,2.37
2019-05-22T17:03:14.339Z,3.20
2019-05-22T17:05:43.465Z,3.43
2019-05-22T17:08:12.992Z,4.30
2019-05-22T17:10:42.314Z,4.00
2019-05-22T17:13:12.419Z,3.63
2019-05-22T17:15:41.398Z,3.60
2019-05-22T17:18:11.518Z,3.30
2019-05-22T17:20:41.252Z,4.00
2019-05-22T17:23:10.524Z,4.00
2019-05-22T17:25:39.529Z,3.77
2019-05-22T17:28:08.951Z,3.90
2019-05-22T17:30:38.598Z,3.90
2019-05-22T17:33:08.009Z,3.77
2019-05-22T17:35:37.580Z,3.77
2019-05-22T17:38:06.942Z,3.30
2019-05-22T17:40:37.186Z,3.43
2019-05-22T17:43:07.582Z,4.03
2019-05-22T17:45:36.627Z,4.10
2019-05-22T17:48:05.649Z,4.30
2019-05-22T17:50:34.705Z,4.07
2019-05-22T17:53:04.012Z,3.67
2019-05-22T17:55:33.239Z,3.57
2019-05-22T17:58:02.262Z,3.70
2019-05-22T18:00:35.191Z,3.77
2019-05-22T18:03:04.394Z,3.57
2019-05-22T18:05:33.478Z,3.70
2019-05-22T18:08:03.863Z,2.80
2019-05-22T18:10:33.910Z,3.30
2019-05-22T18:13:03.859Z,3.13
2019-05-22T18:15:32.936Z,2.73
2019-05-22T18:18:02.039Z,3.07
2019-05-22T18:20:42.468Z,2.73
2019-05-22T18:23:02.702Z,3.10
2019-05-22T18:25:31.957Z,2.97
2019-05-22T18:28:02.823Z,2.70
2019-05-22T18:30:35.089Z,3.33
2019-05-22T18:33:04.446Z,2.73
2019-05-22T18:35:33.601Z,3.77
2019-05-22T18:38:04.870Z,3.50
2019-05-22T18:40:34.338Z,3.07
2019-05-22T18:43:03.319Z,2.80
2019-05-22T18:45:33.435Z,2.63
2019-05-22T18:48:02.437Z,2.20
2019-05-22T18:50:31.747Z,2.60
2019-05-22T18:53:00.939Z,2.20
2019-05-22T18:55:29.937Z,2.13
2019-05-22T18:57:59.172Z,2.13
2019-05-22T19:00:29.101Z,3.83
2019-05-22T19:02:58.383Z,2.53
2019-05-22T19:05:28.330Z,2.00
2019-05-22T19:07:57.375Z,2.20
2019-05-22T19:10:27.060Z,2.70
2019-05-22T19:12:56.757Z,2.00
2019-05-22T19:15:26.132Z,1.97
2019-05-22T19:17:55.205Z,2.10
2019-05-22T19:20:24.310Z,2.03
2019-05-22T19:23:00.230Z,1.90
2019-05-22T19:25:24.820Z,2.10
2019-05-22T19:27:53.825Z,2.30
2019-05-22T19:30:22.950Z,2.47
2019-05-22T19:32:53.011Z,2.37
2019-05-22T19:35:22.015Z,2.03
2019-05-22T19:37:51.130Z,2.00
2019-05-22T19:40:20.129Z,2.20
2019-05-22T19:42:49.442Z,2.30
2019-05-22T19:45:18.862Z,2.40
2019-05-22T19:47:51.854Z,2.27
2019-05-22T19:50:23.851Z,2.40
2019-05-22T19:52:56.899Z,3.63
2019-05-22T19:55:27.629Z,3.77
2019-05-22T19:57:57.168Z,3.50
2019-05-22T20:00:26.383Z,4.23
2019-05-22T20:02:55.847Z,4.40
2019-05-22T20:05:25.478Z,4.33
2019-05-22T20:07:54.676Z,4.73
2019-05-22T20:10:24.189Z,4.60
2019-05-22T20:12:53.545Z,4.33
2019-05-22T20:15:24.012Z,4.37
2019-05-22T20:17:53.151Z,4.10
2019-05-22T20:20:23.146Z,3.63
2019-05-22T20:22:52.223Z,3.80
2019-05-22T20:25:21.963Z,3.53
2019-05-22T20:27:51.410Z,3.70
2019-05-22T20:30:22.739Z,3.70
2019-05-22T20:32:51.831Z,4.50
2019-05-22T20:35:21.668Z,3.97
2019-05-22T20:37:51.338Z,3.97
2019-05-22T20:40:22.103Z,4.30
2019-05-22T20:42:51.253Z,4.23
2019-05-22T20:45:23.336Z,4.03
2019-05-22T20:48:07.794Z,4.27
2019-05-22T20:50:37.253Z,3.70
2019-05-22T20:53:07.557Z,4.13
2019-05-22T20:55:38.523Z,4.10
2019-05-22T20:58:08.961Z,4.27
2019-05-22T21:00:39.665Z,4.10
2019-05-22T21:03:08.894Z,3.80
2019-05-22T21:05:38.415Z,4.43
2019-05-22T21:08:12.343Z,4.50
2019-05-22T21:10:48.152Z,3.63
2019-05-22T21:13:18.559Z,4.37
2019-05-22T21:15:48.117Z,4.30
2019-05-22T21:18:20.087Z,5.10
2019-05-22T21:20:55.063Z,5.23
2019-05-22T21:23:23.701Z,4.53
2019-05-22T21:25:52.846Z,5.20
2019-05-22T21:28:22.620Z,5.33
2019-05-22T21:30:54.124Z,4.33
2019-05-22T21:33:23.483Z,4.37
2019-05-22T21:35:53.096Z,5.17
2019-05-22T21:38:22.666Z,4.73
2019-05-22T21:40:52.224Z,4.63
2019-05-22T21:43:22.550Z,4.87
2019-05-22T21:46:10.920Z,5.57
2019-05-22T21:48:41.456Z,5.57
2019-05-22T21:51:10.699Z,6.17
2019-05-22T21:53:40.176Z,5.83
2019-05-22T21:56:09.690Z,6.63
2019-05-22T21:58:39.270Z,6.03
2019-05-22T22:01:27.291Z,6.20
2019-05-22T22:04:04.513Z,6.63
2019-05-22T22:06:34.680Z,6.67
2019-05-22T22:09:03.707Z,6.90
2019-05-22T22:11:33.265Z,6.17
2019-05-22T22:14:02.343Z,6.50
2019-05-22T22:16:32.897Z,6.83
2019-05-22T22:19:02.322Z,6.77
2019-05-22T22:21:31.424Z,6.87
2019-05-22T22:24:01.139Z,6.60
2019-05-22T22:26:30.628Z,6.37
2019-05-22T22:29:00.285Z,6.30
2019-05-22T22:31:31.053Z,6.13
2019-05-22T22:34:06.978Z,6.80
2019-05-22T22:36:36.280Z,7.10
2019-05-22T22:39:10.220Z,6.37
2019-05-22T22:41:39.291Z,6.33
2019-05-22T22:44:10.022Z,6.40
2019-05-22T22:46:49.195Z,6.13
2019-05-22T22:49:20.488Z,6.27
2019-05-22T22:51:50.414Z,6.20
2019-05-22T22:54:20.349Z,6.47
2019-05-22T22:56:49.564Z,6.30
2019-05-22T22:59:19.986Z,6.53
2019-05-22T23:01:50.385Z,6.00
2019-05-22T23:04:19.807Z,6.20
2019-05-22T23:06:48.868Z,5.97
2019-05-22T23:09:17.934Z,6.30
2019-05-22T23:11:48.447Z,5.93
2019-05-22T23:14:17.564Z,6.50
2019-05-22T23:16:47.032Z,6.33
2019-05-22T23:19:32.167Z,6.43
2019-05-22T23:22:01.264Z,5.93
2019-05-22T23:24:30.974Z,5.87
2019-05-22T23:27:00.902Z,5.53
2019-05-22T23:29:32.847Z,6.10
2019-05-22T23:32:02.498Z,6.23
2019-05-22T23:34:32.032Z,6.13
2019-05-22T23:37:02.754Z,7.00
2019-05-22T23:39:33.656Z,6.00
2019-05-22T23:42:07.451Z,6.53
2019-05-22T23:44:37.574Z,6.53
2019-05-22T23:47:08.032Z,6.17
2019-05-22T23:49:39.524Z,6.13
2019-05-22T23:52:10.373Z,6.30
2019-05-22T23:54:40.165Z,6.90
2019-05-22T23:57:13.014Z,6.10
2019-05-22T23:59:44.714Z,6.03
